Time;durP1;ratioP1;P1;durP2;ratioP2;P2;SDS_P1;SDS_P2;PMS_P1;PMS_P2;Temp;Humidity;BMP_temperature;BMP_pressure;BME280_temperature;BME280_humidity;BME280_pressure;Samples;Min_cycle;Max_cycle;Signal;HPM_P1;HPM_P2
2022/11/14 00:00:26;;;;;;;8.83;4.80;;;;;;;7.35;78.63;101269.86;1706043;82;21117;-83
2022/11/14 00:03:11;;;;;;;6.67;4.83;;;;;;;7.34;78.56;101266.85;1723382;82;21454;-83
2022/11/14 00:05:56;;;;;;;6.62;4.70;;;;;;;7.32;78.50;101270.00;1724462;81;21015;-81
2022/11/14 00:08:41;;;;;;;8.10;5.20;;;;;;;7.28;78.47;101271.09;1724664;81;21855;-83
2022/11/14 00:11:26;;;;;;;6.65;4.80;;;;;;;7.25;78.44;101276.98;1722730;81;21031;-79
2022/11/14 00:14:12;;;;;;;7.85;5.03;;;;;;;7.23;78.47;101280.13;1724999;81;21026;-82
2022/11/14 00:16:58;;;;;;;7.00;4.60;;;;;;;7.22;78.43;101280.59;1717535;81;21109;-79
2022/11/14 00:19:44;;;;;;;7.15;4.80;;;;;;;7.20;78.37;101278.98;1710548;82;21003;-79
2022/11/14 00:22:29;;;;;;;7.70;4.90;;;;;;;7.17;78.29;101288.73;1729788;80;21973;-78
2022/11/14 00:25:15;;;;;;;7.25;4.92;;;;;;;7.12;78.31;101285.47;1730268;81;21082;-79
2022/11/14 00:28:00;;;;;;;8.63;5.00;;;;;;;7.10;78.33;101288.64;1726936;82;20974;-79
2022/11/14 00:30:47;;;;;;;7.33;4.47;;;;;;;7.06;78.29;101283.17;1723325;82;20976;-79
2022/11/14 00:33:34;;;;;;;10.18;4.72;;;;;;;7.03;78.27;101276.73;1740781;82;22247;-79
2022/11/14 00:36:19;;;;;;;8.38;4.90;;;;;;;6.98;78.18;101282.70;1736128;81;21848;-79
2022/11/14 00:39:04;;;;;;;7.62;4.40;;;;;;;6.93;78.20;101284.69;1738759;80;21523;-79
2022/11/14 00:41:52;;;;;;;6.40;4.70;;;;;;;6.92;78.25;101289.56;1732573;81;21038;-79
2022/11/14 00:44:37;;;;;;;8.73;4.67;;;;;;;6.91;78.14;101294.42;1736368;81;20956;-80
2022/11/14 00:47:22;;;;;;;9.15;4.45;;;;;;;6.88;78.07;101291.50;1733875;81;21047;-79
2022/11/14 00:50:08;;;;;;;6.92;4.60;;;;;;;6.87;78.03;101288.48;1733358;80;22617;-79
2022/11/14 00:52:54;;;;;;;7.20;4.45;;;;;;;6.85;78.04;101286.84;1712952;80;21017;-80
2022/11/14 00:55:40;;;;;;;7.20;4.60;;;;;;;6.83;78.05;101290.86;1728677;80;21018;-79
2022/11/14 00:58:25;;;;;;;6.33;4.55;;;;;;;6.79;78.00;101286.70;1670892;82;20993;-79
2022/11/14 01:01:11;;;;;;;7.65;4.65;;;;;;;6.76;78.05;101285.55;1725124;81;21008;-78
2022/11/14 01:03:56;;;;;;;6.58;4.50;;;;;;;6.75;78.07;101289.06;1737293;80;21402;-80
2022/11/14 01:06:42;;;;;;;7.25;4.62;;;;;;;6.74;78.07;101286.52;1737104;80;20948;-79
2022/11/14 01:09:27;;;;;;;6.95;4.85;;;;;;;6.71;78.07;101288.84;1742168;82;20968;-79
2022/11/14 01:12:13;;;;;;;7.40;4.70;;;;;;;6.70;78.11;101284.52;1726736;80;21076;-79
2022/11/14 01:14:57;;;;;;;6.45;4.70;;;;;;;6.69;77.99;101285.91;1733704;81;20961;-80
2022/11/14 01:17:43;;;;;;;7.72;4.83;;;;;;;6.64;77.91;101288.74;1734239;80;22535;-78
2022/11/14 01:20:28;;;;;;;7.28;5.00;;;;;;;6.64;77.86;101294.45;1719725;82;21646;-78
2022/11/14 01:23:15;;;;;;;7.45;4.90;;;;;;;6.62;77.84;101291.91;1744873;80;21434;-78
2022/11/14 01:26:04;;;;;;;7.45;4.62;;;;;;;6.57;77.77;101289.52;1747771;80;20957;-79
2022/11/14 01:28:49;;;;;;;6.55;4.83;;;;;;;6.49;77.58;101292.97;1733953;80;21115;-77
2022/11/14 01:31:34;;;;;;;6.47;4.55;;;;;;;6.44;77.65;101306.76;1749854;80;22358;-79
2022/11/14 01:34:20;;;;;;;6.60;4.92;;;;;;;6.39;77.66;101304.83;1747103;80;22268;-77
2022/11/14 01:37:08;;;;;;;7.00;4.85;;;;;;;6.34;77.65;101304.64;1743182;81;21008;-81
2022/11/14 01:39:54;;;;;;;5.97;4.17;;;;;;;6.28;77.65;101317.14;1748920;80;21012;-81
2022/11/14 01:42:42;;;;;;;6.87;4.55;;;;;;;6.19;77.45;101313.63;1737956;80;21366;-80
2022/11/14 01:45:58;;;;;;;7.33;4.67;;;;;;;6.07;77.29;101314.17;1742318;80;21938;-78
2022/11/14 01:49:07;;;;;;;7.42;4.20;;;;;;;6.03;77.54;101322.66;1749831;80;21366;-80
2022/11/14 01:52:04;;;;;;;6.37;4.60;;;;;;;6.02;77.67;101322.73;1736259;80;20989;-81
2022/11/14 01:54:52;;;;;;;6.97;4.67;;;;;;;6.03;77.77;101323.11;1736176;80;21075;-80
2022/11/14 01:57:44;;;;;;;7.28;4.42;;;;;;;6.02;77.76;101321.41;1749032;80;21013;-80
2022/11/14 02:00:30;;;;;;;8.10;4.47;;;;;;;5.97;77.75;101311.12;1725394;81;21859;-79
2022/11/14 02:03:15;;;;;;;12.43;4.50;;;;;;;5.95;77.73;101314.73;1737889;80;21000;-81
2022/11/14 02:06:00;;;;;;;10.13;5.05;;;;;;;5.91;77.88;101314.03;1750383;80;20980;-80
2022/11/14 02:08:47;;;;;;;6.35;4.37;;;;;;;5.91;77.92;101307.94;1745005;82;20996;-80
2022/11/14 02:11:35;;;;;;;6.80;4.37;;;;;;;5.87;77.83;101308.95;1744480;80;21573;-79
2022/11/14 02:14:21;;;;;;;5.58;4.30;;;;;;;5.85;77.80;101308.17;1723660;82;21948;-79
2022/11/14 02:17:07;;;;;;;7.45;4.22;;;;;;;5.82;77.77;101310.94;1746800;80;21063;-81
2022/11/14 02:20:13;;;;;;;7.58;4.20;;;;;;;5.79;77.83;101309.31;1752345;80;21086;-79
2022/11/14 02:22:58;;;;;;;5.97;4.22;;;;;;;5.74;77.75;101300.80;1721836;82;21004;-80
2022/11/14 02:25:44;;;;;;;6.80;3.87;;;;;;;5.69;77.71;101304.94;1731106;80;21000;-80
2022/11/14 02:28:30;;;;;;;6.00;4.03;;;;;;;5.66;77.64;101303.75;1734776;80;21857;-79
2022/11/14 02:31:15;;;;;;;5.87;4.20;;;;;;;5.63;77.56;101310.45;1734020;80;21099;-80
2022/11/14 02:34:02;;;;;;;5.50;4.47;;;;;;;5.60;77.56;101304.03;1738060;80;20957;-79
2022/11/14 02:36:46;;;;;;;6.22;4.33;;;;;;;5.57;77.52;101302.84;1736270;80;21138;-80
2022/11/14 02:39:32;;;;;;;5.08;3.92;;;;;;;5.54;77.39;101300.36;1730574;80;20933;-80
2022/11/14 02:42:17;;;;;;;5.70;4.00;;;;;;;5.50;77.33;101301.85;1735659;81;21947;-80
2022/11/14 02:45:03;;;;;;;5.45;3.90;;;;;;;5.45;77.24;101296.38;1739500;80;21107;-78
2022/11/14 02:47:47;;;;;;;6.00;3.80;;;;;;;5.41;77.10;101300.05;1738270;80;21059;-75
2022/11/14 02:50:33;;;;;;;6.58;4.10;;;;;;;5.38;77.16;101303.25;1740310;80;20986;-78
2022/11/14 02:53:18;;;;;;;7.17;4.00;;;;;;;5.34;77.14;101310.86;1730352;80;21005;-76
2022/11/14 02:56:03;;;;;;;6.47;4.30;;;;;;;5.31;77.19;101305.30;1740718;80;22648;-73
2022/11/14 02:58:49;;;;;;;6.37;4.30;;;;;;;5.31;77.20;101306.61;1738086;81;21391;-75
2022/11/14 03:01:34;;;;;;;6.60;4.12;;;;;;;5.30;77.16;101307.95;1732804;81;21055;-74
2022/11/14 03:04:19;;;;;;;5.72;4.12;;;;;;;5.26;77.22;101311.17;1742038;82;21407;-77
2022/11/14 03:07:03;;;;;;;5.00;3.75;;;;;;;5.22;77.05;101310.08;1733077;80;21068;-76
2022/11/14 03:09:48;;;;;;;7.17;3.95;;;;;;;5.14;76.89;101309.08;1734872;80;22029;-75
2022/11/14 03:12:33;;;;;;;6.12;3.90;;;;;;;5.05;76.77;101305.08;1736629;80;21043;-76
2022/11/14 03:15:18;;;;;;;5.83;3.58;;;;;;;5.00;76.79;101305.70;1740712;80;21395;-76
2022/11/14 03:18:04;;;;;;;6.47;3.70;;;;;;;4.94;76.74;101309.91;1741028;80;21522;-76
2022/11/14 03:20:49;;;;;;;5.87;3.83;;;;;;;4.91;76.80;101314.39;1732776;82;21094;-76
2022/11/14 03:23:36;;;;;;;6.65;3.83;;;;;;;4.88;76.82;101316.69;1732708;80;21678;-76
2022/11/14 03:26:21;;;;;;;6.87;4.22;;;;;;;4.85;76.78;101318.98;1738425;81;21067;-76
2022/11/14 03:29:07;;;;;;;7.42;3.87;;;;;;;4.82;76.78;101319.09;1730962;80;21118;-76
2022/11/14 03:31:52;;;;;;;6.47;4.10;;;;;;;4.81;76.87;101311.30;1723669;81;21040;-76
2022/11/14 03:34:38;;;;;;;5.40;3.87;;;;;;;4.81;76.89;101327.01;1712784;80;20939;-75
2022/11/14 03:37:22;;;;;;;5.25;3.62;;;;;;;4.77;76.91;101326.75;1731047;81;22093;-75
2022/11/14 03:40:10;;;;;;;7.58;4.50;;;;;;;4.72;76.85;101328.69;1730048;80;20945;-75
2022/11/14 03:42:56;;;;;;;5.70;4.08;;;;;;;4.67;76.88;101325.41;1719015;80;21040;-75
2022/11/14 03:45:42;;;;;;;7.45;4.10;;;;;;;4.66;76.95;101329.80;1724839;80;21067;-74
2022/11/14 03:48:27;;;;;;;8.23;4.65;;;;;;;4.64;76.84;101328.16;1737810;82;21343;-74
2022/11/14 03:51:13;;;;;;;7.28;3.98;;;;;;;4.57;76.86;101321.85;1732420;80;21949;-75
2022/11/14 03:53:58;;;;;;;5.75;3.90;;;;;;;4.55;76.98;101326.30;1763833;80;20906;-76
2022/11/14 03:56:44;;;;;;;8.20;4.20;;;;;;;4.55;77.11;101322.38;1754243;80;21475;-74
2022/11/14 03:59:29;;;;;;;6.05;3.85;;;;;;;4.50;77.09;101321.69;1732931;80;21400;-76
2022/11/14 04:02:15;;;;;;;5.55;4.10;;;;;;;4.45;77.16;101331.49;1739848;80;21012;-75
2022/11/14 04:05:00;;;;;;;7.25;4.37;;;;;;;4.44;77.24;101325.88;1736289;81;21460;-75
2022/11/14 04:07:45;;;;;;;6.95;3.92;;;;;;;4.41;77.23;101327.73;1728324;80;21037;-75
2022/11/14 04:10:30;;;;;;;6.30;4.12;;;;;;;4.37;77.21;101323.55;1736366;82;21012;-73
2022/11/14 04:13:15;;;;;;;6.83;4.37;;;;;;;4.35;77.27;101333.22;1743044;80;21037;-73
2022/11/14 04:16:01;;;;;;;5.87;4.00;;;;;;;4.33;77.27;101335.02;1711727;82;21495;-74
2022/11/14 04:18:46;;;;;;;5.55;4.05;;;;;;;4.27;77.25;101337.42;1738784;80;21835;-75
2022/11/14 04:21:32;;;;;;;7.87;4.40;;;;;;;4.25;77.32;101345.79;1765174;80;21008;-74
2022/11/14 04:24:18;;;;;;;6.95;4.47;;;;;;;4.22;77.32;101341.50;1741070;80;20953;-75
2022/11/14 04:27:03;;;;;;;6.33;4.10;;;;;;;4.17;77.24;101349.14;1733424;80;21059;-75
2022/11/14 04:29:48;;;;;;;5.75;4.00;;;;;;;4.12;77.26;101345.83;1735635;80;20993;-75
2022/11/14 04:32:33;;;;;;;7.65;4.20;;;;;;;4.07;77.30;101347.78;1741378;80;21945;-75
2022/11/14 04:35:19;;;;;;;6.15;4.00;;;;;;;4.03;77.44;101345.26;1727277;80;20991;-74
2022/11/14 04:38:05;;;;;;;5.45;3.60;;;;;;;4.03;77.44;101353.09;1744316;80;21052;-75
2022/11/14 04:40:51;;;;;;;6.92;3.87;;;;;;;4.01;77.42;101355.37;1734655;81;21417;-74
2022/11/14 04:43:36;;;;;;;6.53;4.00;;;;;;;3.93;77.30;101355.65;1740216;80;21082;-74
2022/11/14 04:46:23;;;;;;;7.22;3.90;;;;;;;3.85;77.25;101350.30;1736129;80;22432;-74
2022/11/14 04:49:09;;;;;;;7.78;3.80;;;;;;;3.79;77.16;101355.77;1727195;80;21392;-74
2022/11/14 04:51:55;;;;;;;6.80;4.30;;;;;;;3.75;77.16;101357.61;1728158;80;21513;-74
2022/11/14 04:54:40;;;;;;;7.10;4.17;;;;;;;3.75;77.33;101358.92;1737737;80;20967;-74
2022/11/14 04:57:25;;;;;;;6.83;4.08;;;;;;;3.81;77.49;101356.56;1739190;80;20996;-75
2022/11/14 05:00:12;;;;;;;10.30;4.30;;;;;;;3.83;77.56;101362.12;1740060;80;22696;-75
2022/11/14 05:02:59;;;;;;;5.42;3.85;;;;;;;3.84;77.53;101365.13;1728303;80;21388;-75
2022/11/14 05:05:45;;;;;;;5.67;3.92;;;;;;;3.81;77.43;101368.31;1731876;80;21063;-75
2022/11/14 05:08:30;;;;;;;8.18;4.25;;;;;;;3.75;77.41;101370.67;1730723;80;21035;-76
2022/11/14 05:11:16;;;;;;;6.95;4.10;;;;;;;3.73;77.33;101375.96;1741032;80;20984;-75
2022/11/14 05:14:03;;;;;;;6.95;3.60;;;;;;;3.72;77.37;101383.86;1753682;80;21084;-75
2022/11/14 05:16:49;;;;;;;6.58;4.00;;;;;;;3.72;77.37;101378.63;1729580;80;20864;-76
2022/11/14 05:19:36;;;;;;;6.97;3.65;;;;;;;3.71;77.38;101387.38;1738844;80;21101;-80
2022/11/14 05:22:21;;;;;;;8.65;4.30;;;;;;;3.70;77.47;101389.14;1734476;80;21197;-80
2022/11/14 05:25:08;;;;;;;6.50;4.22;;;;;;;3.72;77.53;101394.31;1740154;80;20929;-78
2022/11/14 05:27:55;;;;;;;6.40;3.25;;;;;;;3.70;77.52;101401.36;1739418;80;20984;-74
2022/11/14 05:30:41;;;;;;;6.80;3.60;;;;;;;3.68;77.51;101397.50;1749143;80;20916;-81
2022/11/14 05:33:28;;;;;;;6.53;4.10;;;;;;;3.69;77.63;101397.89;1730784;80;21550;-79
2022/11/14 05:36:15;;;;;;;5.20;3.50;;;;;;;3.71;77.72;101398.69;1742506;80;21044;-82
2022/11/14 05:39:00;;;;;;;6.00;3.67;;;;;;;3.74;77.74;101401.19;1736474;80;20964;-80
2022/11/14 05:41:45;;;;;;;7.90;3.70;;;;;;;3.78;77.84;101405.87;1743085;80;22437;-81
2022/11/14 05:44:31;;;;;;;7.53;3.98;;;;;;;3.81;77.93;101407.52;1745299;80;21016;-80
2022/11/14 05:47:16;;;;;;;7.17;4.17;;;;;;;3.85;78.01;101410.41;1732920;80;21476;-80
2022/11/14 05:50:03;;;;;;;6.00;3.87;;;;;;;3.87;78.00;101411.23;1737480;81;21035;-82
2022/11/14 05:52:49;;;;;;;4.85;3.37;;;;;;;3.88;78.06;101406.40;1744441;80;21392;-81
2022/11/14 05:55:34;;;;;;;7.60;3.85;;;;;;;3.88;78.17;101409.02;1734936;80;22579;-80
2022/11/14 05:58:20;;;;;;;5.60;3.70;;;;;;;3.90;78.31;101417.19;1725714;80;20967;-80
2022/11/14 06:01:13;;;;;;;5.87;3.75;;;;;;;3.92;78.40;101421.05;1716003;80;21003;-80
2022/11/14 06:04:00;;;;;;;5.42;3.25;;;;;;;3.95;78.47;101415.25;1729667;80;20964;-80
2022/11/14 06:06:45;;;;;;;6.05;3.62;;;;;;;3.98;78.54;101407.78;1737910;80;21011;-80
2022/11/14 06:09:32;;;;;;;8.15;3.40;;;;;;;4.01;78.64;101409.81;1732257;80;23330;-80
2022/11/14 06:12:17;;;;;;;8.40;6.22;;;;;;;4.07;78.72;101403.98;1728410;80;23267;-80
2022/11/14 06:15:03;;;;;;;7.28;4.72;;;;;;;4.14;78.95;101398.91;1748279;80;21463;-80
2022/11/14 06:17:50;;;;;;;8.08;5.87;;;;;;;4.23;79.11;101404.66;1742844;80;21180;-79
2022/11/14 06:20:36;;;;;;;6.50;3.98;;;;;;;4.33;79.24;101404.33;1723403;82;21123;-80
2022/11/14 06:23:22;;;;;;;5.55;3.90;;;;;;;4.39;79.29;101404.11;1737431;80;21419;-80
2022/11/14 06:26:29;;;;;;;6.12;4.17;;;;;;;4.45;79.35;101409.13;1738380;82;20945;-77
2022/11/14 06:29:13;;;;;;;10.28;4.22;;;;;;;4.50;79.42;101414.56;1733017;80;21519;-79
2022/11/14 06:31:58;;;;;;;6.78;4.53;;;;;;;4.57;79.46;101412.12;1657942;84;21042;-82
2022/11/14 06:34:43;;;;;;;9.15;4.00;;;;;;;4.65;79.53;101410.98;1667682;85;21098;-83
2022/11/14 06:37:29;;;;;;;9.00;4.58;;;;;;;4.74;79.58;101405.39;1680126;84;22266;-82
2022/11/14 06:40:15;;;;;;;7.55;4.00;;;;;;;4.79;79.60;101405.59;1692910;83;21173;-76
2022/11/14 06:43:00;;;;;;;8.90;4.20;;;;;;;4.87;79.63;101404.84;1692405;83;20980;-79
2022/11/14 06:45:45;;;;;;;7.65;3.25;;;;;;;4.96;79.63;101406.25;1707933;84;21000;-78
2022/11/14 06:48:32;;;;;;;9.35;3.55;;;;;;;5.03;79.65;101406.41;1680768;83;21039;-80
2022/11/14 06:51:21;;;;;;;64.32;7.65;;;;;;;5.11;79.64;101406.92;1713362;82;21955;-80
2022/11/14 06:54:11;;;;;;;19.17;6.83;;;;;;;5.20;79.58;101416.64;1701071;83;21570;-79
2022/11/14 06:57:06;;;;;;;15.60;7.83;;;;;;;5.26;79.51;101416.41;1700554;83;21108;-80
2022/11/14 07:00:12;;;;;;;10.95;4.12;;;;;;;5.32;79.49;101414.40;1708391;82;20991;-79
2022/11/14 07:03:26;;;;;;;18.57;4.42;;;;;;;5.40;79.47;101408.39;1702746;82;21009;-79
2022/11/14 07:06:33;;;;;;;9.05;3.50;;;;;;;5.51;79.39;101415.80;1681594;83;21447;-80
2022/11/14 07:09:23;;;;;;;9.85;3.47;;;;;;;5.58;79.22;101415.06;1706153;82;21039;-79
2022/11/14 07:12:09;;;;;;;11.03;5.78;;;;;;;5.64;79.16;101416.13;1688603;82;20955;-78
2022/11/14 07:14:56;;;;;;;37.20;6.15;;;;;;;5.71;79.11;101414.96;1706388;82;20996;-81
2022/11/14 07:17:58;;;;;;;7.90;3.98;;;;;;;5.76;78.95;101412.98;1674916;85;21020;-77
2022/11/14 07:20:49;;;;;;;7.30;3.65;;;;;;;5.82;78.79;101414.50;1697631;82;21936;-80
2022/11/14 07:23:36;;;;;;;7.25;3.08;;;;;;;5.90;78.59;101418.95;1694076;83;21047;-76
2022/11/14 07:26:21;;;;;;;9.83;3.08;;;;;;;5.96;78.42;101423.95;1715891;82;21107;-80
2022/11/14 07:29:14;;;;;;;10.35;3.50;;;;;;;6.01;78.31;101420.69;1700995;82;21296;-76
2022/11/14 07:32:00;;;;;;;6.95;3.12;;;;;;;6.08;78.18;101425.17;1705565;82;21010;-79
2022/11/14 07:34:45;;;;;;;9.95;2.75;;;;;;;6.20;78.13;101434.69;1708354;82;21845;-79
2022/11/14 07:37:34;;;;;;;8.10;3.50;;;;;;;6.27;77.85;101434.81;1706579;82;21067;-80
2022/11/14 07:40:21;;;;;;;16.12;3.47;;;;;;;6.34;77.60;101438.46;1697574;83;21373;-80
2022/11/14 07:43:08;;;;;;;4.10;2.40;;;;;;;6.40;77.46;101434.27;1714483;82;21000;-82
2022/11/14 07:46:00;;;;;;;12.65;2.80;;;;;;;6.46;77.04;101433.50;1712586;82;21031;-80
2022/11/14 07:48:46;;;;;;;7.12;2.95;;;;;;;6.53;76.70;101430.14;1698174;82;21843;-83
2022/11/14 07:51:33;;;;;;;5.55;2.90;;;;;;;6.50;76.29;101423.27;1698144;82;21489;-82
2022/11/14 07:54:18;;;;;;;12.63;3.02;;;;;;;6.55;76.12;101428.30;1705286;82;21387;-81
2022/11/14 07:57:03;;;;;;;10.55;3.33;;;;;;;6.62;76.03;101431.50;1716561;82;21023;-81
2022/11/14 07:59:48;;;;;;;7.20;3.15;;;;;;;6.63;75.57;101438.45;1681420;83;21507;-81
2022/11/14 08:02:33;;;;;;;4.62;2.85;;;;;;;6.66;75.41;101429.11;1707118;82;22345;-79
2022/11/14 08:05:20;;;;;;;5.30;2.90;;;;;;;6.73;75.35;101431.39;1701038;83;20916;-82
2022/11/14 08:08:05;;;;;;;5.37;3.20;;;;;;;6.79;75.13;101432.42;1749688;80;21542;-79
2022/11/14 08:10:50;;;;;;;25.15;4.47;;;;;;;6.81;74.80;101423.16;1738153;80;21466;-76
2022/11/14 08:13:37;;;;;;;16.07;4.62;;;;;;;6.85;74.70;101425.59;1750425;80;20979;-78
2022/11/14 08:16:22;;;;;;;6.10;3.45;;;;;;;6.87;74.47;101426.36;1751550;80;21852;-76
2022/11/14 08:19:07;;;;;;;5.58;2.80;;;;;;;6.89;74.27;101425.81;1745227;80;21005;-80
2022/11/14 08:21:52;;;;;;;115.62;12.33;;;;;;;6.92;74.04;101427.91;1745395;80;21034;-81
2022/11/14 08:24:36;;;;;;;7.90;2.98;;;;;;;6.98;74.09;101429.78;1744958;80;21107;-79
2022/11/14 08:27:22;;;;;;;7.17;2.70;;;;;;;7.13;74.12;101423.78;1739243;80;20944;-74
2022/11/14 08:30:09;;;;;;;7.05;3.02;;;;;;;7.21;73.58;101420.78;1726255;80;21924;-76
2022/11/14 08:32:54;;;;;;;163.65;15.05;;;;;;;7.33;73.48;101421.95;1734737;80;20869;-81
2022/11/14 08:35:39;;;;;;;44.80;4.25;;;;;;;7.43;73.18;101416.20;1730416;80;21016;-77
2022/11/14 08:38:24;;;;;;;5.72;3.08;;;;;;;7.46;72.71;101415.19;1738070;80;21438;-75
2022/11/14 08:41:10;;;;;;;26.40;12.85;;;;;;;7.50;72.57;101414.09;1733756;80;21000;-76
2022/11/14 08:43:54;;;;;;;10.50;5.78;;;;;;;7.57;72.29;101411.55;1734102;81;21849;-79
2022/11/14 08:46:40;;;;;;;10.85;3.40;;;;;;;7.64;72.23;101409.01;1733280;80;20942;-75
2022/11/14 08:49:25;;;;;;;6.03;2.45;;;;;;;7.69;71.62;101406.13;1739645;80;21544;-73
2022/11/14 08:52:10;;;;;;;40.45;6.05;;;;;;;7.77;71.44;101406.59;1740152;80;21118;-79
2022/11/14 08:54:56;;;;;;;12.40;2.20;;;;;;;7.89;71.31;101397.22;1731164;80;21114;-70
2022/11/14 08:57:42;;;;;;;8.68;2.00;;;;;;;8.00;70.71;101394.87;1721109;81;21965;-76
2022/11/14 09:00:27;;;;;;;4.53;1.95;;;;;;;8.08;69.83;101391.84;1722235;80;21495;-77
2022/11/14 09:03:14;;;;;;;3.47;1.67;;;;;;;8.12;69.02;101388.14;1723945;80;20996;-80
2022/11/14 09:05:59;;;;;;;9.63;2.50;;;;;;;8.16;68.60;101393.14;1738698;80;21024;-76
2022/11/14 09:08:44;;;;;;;12.07;2.20;;;;;;;8.17;68.31;101386.94;1740786;80;21031;-77
2022/11/14 09:11:29;;;;;;;13.32;2.90;;;;;;;8.29;68.54;101386.28;1736646;80;21722;-78
2022/11/14 09:14:15;;;;;;;9.08;2.12;;;;;;;8.46;68.45;101384.09;1738414;80;21001;-78
2022/11/14 09:17:00;;;;;;;9.05;5.45;;;;;;;8.59;68.04;101382.51;1732926;80;21043;-77
2022/11/14 09:19:45;;;;;;;9.58;3.60;;;;;;;8.66;66.84;101379.52;1721733;80;20997;-75
2022/11/14 09:22:30;;;;;;;47.85;34.75;;;;;;;8.70;66.37;101377.96;1726088;80;21000;-76
2022/11/14 09:25:15;;;;;;;12.35;8.03;;;;;;;8.77;66.18;101379.77;1723159;81;22600;-75
2022/11/14 09:28:05;;;;;;;5.92;2.58;;;;;;;8.92;66.18;101379.39;1713544;83;21382;-75
2022/11/14 09:30:51;;;;;;;4.15;2.02;;;;;;;9.08;66.13;101380.23;1712068;82;21061;-76
2022/11/14 09:33:35;;;;;;;5.55;1.70;;;;;;;9.26;65.42;101374.34;1720796;83;21011;-76
2022/11/14 09:36:21;;;;;;;5.22;1.82;;;;;;;9.38;64.56;101371.86;1727541;81;20971;-75
2022/11/14 09:39:06;;;;;;;5.90;1.98;;;;;;;9.48;63.98;101372.64;1717850;83;21757;-77
2022/11/14 09:42:14;;;;;;;6.30;1.90;;;;;;;9.62;63.60;101371.34;1719407;83;21023;-76
2022/11/14 09:45:01;;;;;;;9.60;2.80;;;;;;;9.69;63.17;101366.93;1714702;82;20947;-73
2022/11/14 09:47:51;;;;;;;5.00;2.12;;;;;;;9.81;62.50;101357.42;1713216;82;21059;-72
2022/11/14 09:50:46;;;;;;;10.30;5.37;;;;;;;9.90;61.94;101360.83;1712508;81;20958;-72
2022/11/14 09:53:43;;;;;;;15.25;5.42;;;;;;;9.94;61.50;101358.84;1727406;81;21944;-72
2022/11/14 09:56:28;;;;;;;6.30;3.00;;;;;;;10.09;61.81;101361.02;1722520;83;20863;-74
2022/11/14 09:59:13;;;;;;;4.65;2.40;;;;;;;10.30;61.46;101357.08;1725159;81;22340;-73
2022/11/14 10:02:24;;;;;;;3.67;1.82;;;;;;;10.48;60.59;101361.67;1714272;82;21011;-74
2022/11/14 10:05:45;;;;;;;4.22;1.60;;;;;;;10.63;60.44;101356.75;1724095;82;21362;-74
2022/11/14 10:08:57;;;;;;;4.08;1.60;;;;;;;10.74;59.65;101343.69;1724448;82;22140;-76
2022/11/14 10:12:00;;;;;;;3.40;1.70;;;;;;;10.84;59.45;101344.80;1718677;81;21503;-73
2022/11/14 10:15:03;;;;;;;3.92;1.70;;;;;;;10.91;58.72;101347.05;1728152;83;21011;-74
2022/11/14 10:18:00;;;;;;;3.65;1.65;;;;;;;11.00;58.21;101333.20;1713820;81;21448;-75
2022/11/14 10:20:53;;;;;;;4.22;1.42;;;;;;;11.18;57.76;101338.59;1699198;83;20986;-73
2022/11/14 10:23:59;;;;;;;3.42;1.70;;;;;;;11.22;57.51;101336.61;1713433;81;22246;-73
2022/11/14 10:27:20;;;;;;;120.67;10.82;;;;;;;11.28;56.83;101329.09;1707504;81;21418;-72
2022/11/14 10:30:11;;;;;;;8.35;2.10;;;;;;;11.38;56.61;101332.81;1655925;86;21039;-72
2022/11/14 10:33:29;;;;;;;7.92;1.67;;;;;;;11.40;56.12;101330.94;1638388;86;21134;-72
2022/11/14 10:36:25;;;;;;;28.32;6.35;;;;;;;11.42;55.47;101325.06;1637675;86;21134;-71
2022/11/14 10:39:22;;;;;;;7.60;2.58;;;;;;;11.38;55.27;101328.84;1644265;86;21791;-71
2022/11/14 10:42:15;;;;;;;14.38;2.40;;;;;;;11.37;54.74;101324.51;1649502;85;21010;-72
2022/11/14 10:45:07;;;;;;;;;;;;;;;11.33;54.54;101317.74;1651763;87;21364;-71
2022/11/14 10:47:59;;;;;;;16.25;9.43;;;;;;;11.32;54.93;101321.81;1613981;87;21711;-71
2022/11/14 10:50:55;;;;;;;11.08;7.28;;;;;;;11.37;55.05;101323.19;1647103;85;21043;-73
2022/11/14 10:53:54;;;;;;;8.28;5.08;;;;;;;11.47;55.30;101307.06;1645113;85;21979;-71
2022/11/14 10:56:47;;;;;;;4.78;2.27;;;;;;;11.59;55.28;101311.17;1635634;86;21031;-70
2022/11/14 10:59:35;;;;;;;3.62;1.82;;;;;;;11.64;55.15;101310.36;1628876;85;21094;-71
2022/11/14 11:02:25;;;;;;;9.10;4.58;;;;;;;11.86;55.19;101312.38;1622910;87;21098;-71
2022/11/14 11:05:17;;;;;;;34.98;26.27;;;;;;;11.97;54.61;101306.73;1634850;87;21031;-72
2022/11/14 11:11:29;;;;;;;10.58;3.98;;;;;;;12.46;54.21;101311.17;1618381;87;21101;-71
2022/11/14 11:14:17;;;;;;;9.30;3.00;;;;;;;12.59;53.19;101310.64;1634516;85;21047;-72
2022/11/14 11:17:23;;;;;;;13.43;1.72;;;;;;;12.69;53.56;101309.97;1648596;86;21096;-73
2022/11/14 11:20:33;;;;;;;23.80;2.58;;;;;;;12.83;52.49;101296.53;1713224;83;20991;-71
2022/11/14 11:23:25;;;;;;;9.45;1.55;;;;;;;12.93;52.66;101297.53;1690653;83;22481;-69
2022/11/14 11:26:26;;;;;;;6.37;3.30;;;;;;;13.10;51.91;101292.30;1711059;81;21048;-71
2022/11/14 11:29:15;;;;;;;8.15;5.97;;;;;;;12.99;51.28;101287.80;1714877;83;22460;-71
2022/11/14 11:32:00;;;;;;;7.35;4.80;;;;;;;13.03;52.50;101293.27;1718317;82;21030;-71
2022/11/14 11:34:47;;;;;;;5.55;3.05;;;;;;;13.44;52.22;101291.47;1706473;83;21004;-71
2022/11/14 11:37:55;;;;;;;7.33;2.30;;;;;;;13.59;51.01;101294.73;1687237;83;21930;-70
2022/11/14 11:40:43;;;;;;;4.85;2.58;;;;;;;13.59;50.76;101292.08;1687318;83;20939;-73
2022/11/14 11:43:48;;;;;;;5.47;3.17;;;;;;;13.44;50.53;101291.95;1691934;82;20967;-71
2022/11/14 11:46:49;;;;;;;6.58;2.80;;;;;;;13.50;50.73;101290.13;1715845;83;21583;-70
2022/11/14 11:49:45;;;;;;;22.20;10.98;;;;;;;13.67;49.91;101285.70;1707412;82;21043;-70
2022/11/14 11:52:42;;;;;;;7.25;3.60;;;;;;;13.73;50.20;101289.22;1710947;83;22949;-74
2022/11/14 11:55:36;;;;;;;7.28;1.92;;;;;;;13.93;49.94;101286.32;1704755;83;20995;-75
2022/11/14 11:58:52;;;;;;;10.23;5.47;;;;;;;14.07;49.51;101291.02;1705139;82;21003;-74
2022/11/14 12:01:39;;;;;;;23.05;11.63;;;;;;;14.18;49.53;101283.02;1703783;82;20995;-76
2022/11/14 12:04:24;;;;;;;41.20;28.30;;;;;;;14.35;49.10;101285.18;1717998;83;21071;-73
2022/11/14 12:07:30;;;;;;;103.10;62.00;;;;;;;14.37;47.82;101284.56;1712918;82;21939;-74
2022/11/14 12:10:23;;;;;;;14.63;8.88;;;;;;;14.43;48.21;101285.41;1660923;84;21059;-78
2022/11/14 12:13:28;;;;;;;11.55;6.67;;;;;;;14.53;48.10;101292.19;1722102;82;21568;-73
2022/11/14 12:16:58;;;;;;;22.65;12.55;;;;;;;14.65;47.69;101285.85;1697852;82;21105;-73
2022/11/14 12:20:06;;;;;;;7.47;3.00;;;;;;;14.80;47.79;101280.62;1708981;83;21018;-73
2022/11/14 12:23:20;;;;;;;10.38;4.97;;;;;;;15.02;47.46;101284.14;1717977;82;21953;-73
2022/11/14 12:26:29;;;;;;;4.08;2.22;;;;;;;15.05;45.95;101279.89;1720483;80;20995;-73
2022/11/14 12:29:38;;;;;;;20.65;15.98;;;;;;;14.58;46.67;101284.69;1724141;82;20983;-74
2022/11/14 12:32:30;;;;;;;16.02;12.13;;;;;;;14.36;46.98;101282.03;1726939;81;21035;-74
2022/11/14 12:35:28;;;;;;;21.90;18.60;;;;;;;14.48;47.57;101282.42;1741745;81;20995;-72
2022/11/14 12:38:14;;;;;;;16.42;12.28;;;;;;;14.73;47.28;101272.78;1724340;83;21966;-72
2022/11/14 12:41:00;;;;;;;51.65;40.80;;;;;;;14.97;47.10;101271.24;1724315;82;20948;-73
2022/11/14 12:43:46;;;;;;;12.35;10.08;;;;;;;15.18;46.76;101273.91;1724209;83;20994;-74
2022/11/14 12:47:07;;;;;;;4.75;2.60;;;;;;;15.36;46.21;101268.84;1700369;81;20940;-73
2022/11/14 12:49:57;;;;;;;2.92;1.50;;;;;;;15.40;45.72;101272.92;1733307;81;21023;-72
2022/11/14 12:52:47;;;;;;;4.10;1.42;;;;;;;15.23;45.68;101273.02;1724055;81;21908;-74
2022/11/14 12:55:42;;;;;;;4.50;1.67;;;;;;;15.16;46.06;101270.54;1724133;82;21057;-73
2022/11/14 12:58:56;;;;;;;4.60;1.77;;;;;;;15.04;45.81;101279.05;1725307;81;21090;-73
2022/11/14 13:02:00;;;;;;;3.25;1.82;;;;;;;14.91;45.94;101277.55;1726677;81;21178;-73
2022/11/14 13:05:34;;;;;;;3.37;1.75;;;;;;;14.93;46.13;101276.93;1724278;83;21497;-73
2022/11/14 13:08:53;;;;;;;12.30;8.23;;;;;;;14.88;46.09;101276.84;1735424;82;22528;-73
2022/11/14 13:25:01;;;;;;;27.90;14.13;;;;;;;13.91;47.10;101274.14;1725235;81;21750;-72
2022/11/14 13:27:46;;;;;;;31.70;20.27;;;;;;;13.81;47.36;101270.52;1724031;81;20903;-72
2022/11/14 13:31:17;;;;;;;54.15;29.85;;;;;;;13.76;47.64;101268.20;1720590;81;34839;-72